Time;durP1;ratioP1;P1;durP2;ratioP2;P2;SDS_P1;SDS_P2;PMS_P1;PMS_P2;Temp;Humidity;BMP_temperature;BMP_pressure;BME280_temperature;BME280_humidity;BME280_pressure;Samples;Min_cycle;Max_cycle;Signal;HPM_P1;HPM_P2
2022/12/01 00:02:40;;;;;;;36.17;20.70;;;;;;;4.14;100.00;102363.28;10415708;28;20123;-67
2022/12/01 00:07:42;;;;;;;31.25;17.42;;;;;;;4.18;100.00;102347.78;10415783;28;20075;-66
2022/12/01 00:12:46;;;;;;;35.08;18.38;;;;;;;4.17;100.00;102356.41;10415891;28;20114;-66
2022/12/01 00:17:49;;;;;;;32.28;16.10;;;;;;;4.18;100.00;102352.97;10415062;28;20478;-66
2022/12/01 00:22:52;;;;;;;35.08;17.45;;;;;;;4.23;100.00;102350.44;10413961;28;20542;-66
2022/12/01 00:27:56;;;;;;;33.83;16.75;;;;;;;4.19;100.00;102344.38;10413503;28;20115;-65
2022/12/01 00:32:57;;;;;;;30.30;17.17;;;;;;;4.25;100.00;102340.97;10414571;28;20046;-65
2022/12/01 00:37:59;;;;;;;36.03;19.02;;;;;;;4.23;100.00;102338.38;10414297;28;20109;-65
2022/12/01 00:43:03;;;;;;;31.92;17.20;;;;;;;4.24;100.00;102334.94;10413931;28;20046;-65
2022/12/01 00:48:05;;;;;;;37.33;18.67;;;;;;;4.30;100.00;102347.03;10413795;28;20075;-66
2022/12/01 00:53:07;;;;;;;31.60;18.45;;;;;;;4.26;100.00;102347.88;10411379;28;20056;-66
2022/12/01 00:58:11;;;;;;;41.65;19.90;;;;;;;4.23;100.00;102353.88;10413255;28;20103;-66
2022/12/01 01:03:13;;;;;;;38.78;19.20;;;;;;;4.25;100.00;102343.56;10412804;28;20094;-65
2022/12/01 01:08:15;;;;;;;36.25;18.02;;;;;;;4.29;100.00;102347.91;10412545;28;20076;-65
2022/12/01 01:13:18;;;;;;;40.33;19.25;;;;;;;4.27;100.00;102353.91;10412668;28;20053;-64
2022/12/01 01:18:20;;;;;;;43.53;20.30;;;;;;;4.30;100.00;102357.38;10412662;28;20050;-65
2022/12/01 01:23:22;;;;;;;31.93;17.97;;;;;;;4.32;100.00;102363.44;10410241;28;20057;-66
2022/12/01 01:28:25;;;;;;;36.45;17.98;;;;;;;4.32;100.00;102366.03;10412384;28;20308;-65
2022/12/01 01:33:26;;;;;;;40.05;19.17;;;;;;;4.28;100.00;102372.03;10412068;28;20543;-65
2022/12/01 01:38:29;;;;;;;49.78;19.38;;;;;;;4.32;100.00;102372.91;10412051;28;20110;-65
2022/12/01 01:43:53;;;;;;;40.17;18.35;;;;;;;4.32;100.00;102383.25;10411895;28;20069;-66
2022/12/01 01:48:59;;;;;;;50.97;20.58;;;;;;;4.33;100.00;102382.38;10411388;28;20523;-66
2022/12/01 01:54:06;;;;;;;41.03;19.80;;;;;;;4.29;100.00;102389.25;10409154;28;20072;-66
2022/12/01 01:59:12;;;;;;;47.38;20.27;;;;;;;4.25;100.00;102387.50;10411717;28;20057;-65
2022/12/01 02:04:15;;;;;;;36.58;16.88;;;;;;;4.30;100.00;102380.66;10411547;28;20095;-66
2022/12/01 02:09:17;;;;;;;41.17;17.58;;;;;;;4.27;100.00;102380.59;10411161;28;20486;-66
2022/12/01 02:14:50;;;;;;;38.50;17.47;;;;;;;4.22;100.00;102377.13;10411279;28;20063;-67
2022/12/01 02:20:32;;;;;;;39.55;18.60;;;;;;;4.23;100.00;102382.31;10411476;28;20341;-65
2022/12/01 02:25:50;;;;;;;39.15;19.08;;;;;;;4.25;100.00;102379.75;10417367;28;20059;-66
2022/12/01 02:31:01;;;;;;;34.17;17.17;;;;;;;4.26;100.00;102381.47;10420024;28;20493;-71
2022/12/01 02:36:19;;;;;;;42.00;19.90;;;;;;;4.28;100.00;102377.19;10418878;28;20065;-72
2022/12/01 02:41:30;;;;;;;45.40;18.77;;;;;;;4.25;100.00;102374.56;10419026;28;20095;-72
2022/12/01 02:46:40;;;;;;;38.97;19.42;;;;;;;4.23;100.00;102376.25;10418717;28;20131;-72
2022/12/01 02:51:45;;;;;;;39.33;18.42;;;;;;;4.21;100.00;102378.84;10419756;28;20041;-72
2022/12/01 02:56:52;;;;;;;35.35;18.83;;;;;;;4.24;100.00;102381.47;10417623;28;20053;-72
2022/12/01 03:02:10;;;;;;;41.78;19.58;;;;;;;4.18;100.00;102376.22;10418476;28;20560;-66
2022/12/01 03:07:38;;;;;;;38.67;18.90;;;;;;;4.23;100.00;102389.19;10417563;28;20140;-66
2022/12/01 03:13:05;;;;;;;47.90;22.35;;;;;;;4.19;100.00;102392.59;10417579;28;20118;-66
2022/12/01 03:18:25;;;;;;;49.72;19.42;;;;;;;4.19;100.00;102383.13;10417581;28;20257;-66
2022/12/01 03:23:35;;;;;;;46.45;19.27;;;;;;;4.19;100.00;102385.72;10414890;28;20107;-65
2022/12/01 03:28:45;;;;;;;41.83;19.20;;;;;;;4.22;100.00;102390.06;10416815;28;20551;-65
2022/12/01 03:33:57;;;;;;;42.63;19.98;;;;;;;4.20;100.00;102384.00;10416075;28;20186;-65
2022/12/01 03:39:06;;;;;;;44.58;18.80;;;;;;;4.21;100.00;102381.41;10417061;28;20064;-64
2022/12/01 03:44:15;;;;;;;44.83;20.33;;;;;;;4.19;100.00;102377.09;10416529;28;20056;-64
2022/12/01 03:49:20;;;;;;;50.20;22.88;;;;;;;4.18;100.00;102380.53;10415926;28;20085;-66
2022/12/01 03:54:38;;;;;;;43.80;19.60;;;;;;;4.21;100.00;102378.00;10413632;28;20054;-65
2022/12/01 03:59:43;;;;;;;38.00;18.65;;;;;;;4.19;100.00;102383.13;10415872;28;20058;-65
2022/12/01 04:04:46;;;;;;;41.78;18.92;;;;;;;4.21;100.00;102383.16;10415891;28;20493;-72
2022/12/01 04:09:48;;;;;;;37.35;20.35;;;;;;;4.23;100.00;102384.03;10415667;28;20080;-72
2022/12/01 04:14:51;;;;;;;36.15;18.95;;;;;;;4.25;100.00;102387.50;10415590;28;20159;-72
2022/12/01 04:19:55;;;;;;;36.65;18.60;;;;;;;4.25;100.00;102385.75;10414989;28;20042;-72
2022/12/01 04:24:56;;;;;;;37.22;18.42;;;;;;;4.23;100.00;102390.06;10412669;28;20045;-72
2022/12/01 04:29:58;;;;;;;42.33;18.73;;;;;;;4.25;100.00;102393.50;10415003;28;20049;-72
2022/12/01 04:35:01;;;;;;;42.47;19.45;;;;;;;4.25;100.00;102390.09;10414403;28;20384;-73
2022/12/01 04:40:03;;;;;;;31.52;16.00;;;;;;;4.20;100.00;102384.00;10414502;28;20094;-72
2022/12/01 04:45:07;;;;;;;39.30;18.55;;;;;;;4.25;100.00;102388.34;10413424;28;20155;-72
2022/12/01 04:50:11;;;;;;;39.38;19.58;;;;;;;4.24;100.00;102386.63;10414580;28;20129;-72
2022/12/01 04:55:14;;;;;;;33.60;17.58;;;;;;;4.21;100.00;102390.91;10411646;28;20520;-72
2022/12/01 05:00:17;;;;;;;34.88;18.30;;;;;;;4.25;100.00;102395.25;10413590;28;20077;-73
2022/12/01 05:05:20;;;;;;;37.40;18.45;;;;;;;4.24;100.00;102385.75;10413572;28;20049;-72
2022/12/01 05:10:22;;;;;;;43.63;19.13;;;;;;;4.23;100.00;102389.19;10413272;28;20239;-73
2022/12/01 05:15:23;;;;;;;38.83;16.33;;;;;;;4.20;100.00;102384.88;10413319;28;20059;-72
2022/12/01 05:25:47;;;;;;;42.28;16.73;;;;;;;4.19;100.00;102387.44;10410409;28;20045;-72
2022/12/01 05:30:50;;;;;;;33.28;17.65;;;;;;;4.20;100.00;102384.88;10412481;28;20083;-72
2022/12/01 05:35:54;;;;;;;33.80;18.00;;;;;;;4.19;100.00;102392.59;10412477;28;20431;-72
2022/12/01 05:40:56;;;;;;;35.25;18.42;;;;;;;4.19;100.00;102387.44;10412294;28;20055;-72
2022/12/01 05:45:58;;;;;;;36.10;17.67;;;;;;;4.18;100.00;102396.88;10412377;28;20103;-72
2022/12/01 05:51:08;;;;;;;38.63;17.98;;;;;;;4.21;100.00;102398.66;10411811;28;20333;-71
2022/12/01 05:56:12;;;;;;;33.13;16.77;;;;;;;4.22;100.00;102392.63;10409252;28;20546;-72
2022/12/01 06:01:14;;;;;;;33.80;17.95;;;;;;;4.21;100.00;102403.84;10411714;28;20058;-72
2022/12/01 06:06:17;;;;;;;;;;;;;;;4.18;100.00;102406.38;10411793;28;20150;-72
2022/12/01 06:11:19;;;;;;;34.53;17.50;;;;;;;4.16;100.00;102397.72;10411257;28;19979;-66
2022/12/01 06:16:20;;;;;;;35.17;18.75;;;;;;;4.15;100.00;102406.34;10410981;28;20482;-65
2022/12/01 06:21:23;;;;;;;38.58;18.85;;;;;;;4.12;100.00;102397.72;10411698;28;20049;-65
2022/12/01 06:26:26;;;;;;;34.55;16.00;;;;;;;4.12;100.00;102397.72;10409031;28;20102;-65
2022/12/01 06:31:28;;;;;;;29.75;16.40;;;;;;;4.12;100.00;102400.31;10411052;28;20080;-65
2022/12/01 06:36:32;;;;;;;37.50;17.00;;;;;;;4.15;100.00;102407.22;10411509;28;20053;-65
2022/12/01 06:41:34;;;;;;;34.47;17.02;;;;;;;4.14;100.00;102402.03;10411336;28;20077;-65
2022/12/01 06:46:35;;;;;;;25.83;15.00;;;;;;;4.15;100.00;102416.69;10411059;28;20095;-65
2022/12/01 06:51:38;;;;;;;26.85;15.07;;;;;;;4.14;100.00;102414.97;10410665;28;20080;-65
2022/12/01 06:56:41;;;;;;;40.90;17.13;;;;;;;4.17;100.00;102421.00;10408141;28;20107;-66
2022/12/01 07:01:43;;;;;;;37.40;15.75;;;;;;;4.15;100.00;102432.19;10410383;28;20145;-65
2022/12/01 07:06:46;;;;;;;38.78;16.92;;;;;;;4.17;100.00;102430.50;10411491;28;20086;-64
2022/12/01 07:11:48;;;;;;;24.02;13.75;;;;;;;4.15;100.00;102439.94;10417503;28;20443;-65
2022/12/01 07:16:49;;;;;;;31.15;15.68;;;;;;;4.17;100.00;102441.69;10417600;28;20059;-65
2022/12/01 07:21:52;;;;;;;39.97;15.98;;;;;;;4.18;100.00;102447.72;10417186;28;20468;-65
2022/12/01 07:26:54;;;;;;;35.03;17.10;;;;;;;4.17;100.00;102452.03;10415258;28;20118;-66
2022/12/01 07:31:56;;;;;;;32.70;15.88;;;;;;;4.18;100.00;102458.06;10416785;28;20071;-67
2022/12/01 07:37:00;;;;;;;42.58;16.98;;;;;;;4.16;100.00;102452.88;10413702;28;20113;-66
2022/12/01 07:42:02;;;;;;;30.05;14.38;;;;;;;4.17;100.00;102456.34;10416617;28;20041;-66
2022/12/01 07:47:04;;;;;;;;;;;;;;;4.18;100.00;102455.47;10416622;28;20095;-66
2022/12/01 07:52:07;;;;;;;37.17;16.83;;;;;;;4.18;100.00;102452.91;10416191;28;20082;-66
2022/12/01 07:57:09;;;;;;;26.92;15.63;;;;;;;4.25;100.00;102459.88;10414053;28;20512;-65
2022/12/01 08:02:11;;;;;;;34.20;15.98;;;;;;;4.25;100.00;102465.03;10415853;28;20053;-66
2022/12/01 08:07:16;;;;;;;31.27;15.60;;;;;;;4.30;100.00;102463.34;10415911;28;20053;-66
2022/12/01 08:12:17;;;;;;;34.53;16.40;;;;;;;4.31;100.00;102470.25;10415492;28;20455;-66
2022/12/01 08:17:19;;;;;;;32.13;15.75;;;;;;;4.35;100.00;102482.34;10415609;28;20485;-66
2022/12/01 08:22:23;;;;;;;35.13;17.00;;;;;;;4.35;100.00;102482.34;10415306;28;20123;-65
2022/12/01 08:27:25;;;;;;;37.38;20.92;;;;;;;4.32;100.00;102487.50;10412941;28;20049;-65
2022/12/01 08:32:28;;;;;;;37.53;18.52;;;;;;;4.37;100.00;102484.97;10414408;28;20133;-66
2022/12/01 08:37:31;;;;;;;44.80;18.70;;;;;;;4.51;100.00;102485.97;10414749;28;20501;-66
2022/12/01 08:42:33;;;;;;;33.83;17.10;;;;;;;4.48;100.00;102491.09;10414241;28;20049;-64
2022/12/01 08:47:35;;;;;;;38.08;15.45;;;;;;;4.49;100.00;102494.56;10414068;28;20113;-65
2022/12/01 08:52:38;;;;;;;37.53;17.60;;;;;;;4.62;100.00;102490.38;10415193;28;20091;-65
2022/12/01 08:57:40;;;;;;;36.70;17.45;;;;;;;4.64;100.00;102494.72;10412181;28;20794;-65
2022/12/01 09:02:41;;;;;;;33.25;17.73;;;;;;;4.68;100.00;102492.16;10413276;28;20625;-65
2022/12/01 09:08:29;;;;;;;35.50;16.65;;;;;;;4.80;100.00;102493.97;10413105;28;20409;-65
2022/12/01 09:13:06;;;;;;;33.72;15.23;;;;;;;4.62;100.00;102493.81;10412814;28;20146;-65
2022/12/01 09:18:07;;;;;;;39.17;18.58;;;;;;;4.87;100.00;102499.22;10412875;28;20077;-65
2022/12/01 09:23:12;;;;;;;38.53;18.23;;;;;;;4.73;100.00;102493.06;10410837;28;20067;-66
2022/12/01 09:28:14;;;;;;;35.35;17.13;;;;;;;4.78;100.00;102501.72;10412418;28;20356;-65
2022/12/01 09:33:15;;;;;;;37.35;19.55;;;;;;;4.83;100.00;102502.59;10407937;28;20470;-65
2022/12/01 09:38:18;;;;;;;35.63;18.08;;;;;;;5.09;100.00;102501.97;10412502;28;20106;-65
2022/12/01 09:43:26;;;;;;;31.10;16.85;;;;;;;5.18;100.00;102508.06;10412383;28;20125;-64
2022/12/01 09:48:41;;;;;;;36.50;17.85;;;;;;;5.04;100.00;102508.84;10412011;28;20096;-64
2022/12/01 09:53:45;;;;;;;36.63;18.63;;;;;;;5.08;100.00;102502.81;10409744;28;20045;-64
2022/12/01 09:58:52;;;;;;;38.40;18.67;;;;;;;5.12;100.00;102496.81;10411961;28;20057;-63
2022/12/01 10:03:59;;;;;;;38.65;17.77;;;;;;;5.30;100.00;102497.78;10412048;28;20096;-63
2022/12/01 10:09:21;;;;;;;37.22;17.63;;;;;;;5.35;100.00;102485.75;10411708;28;20486;-63
2022/12/01 10:14:24;;;;;;;41.65;19.67;;;;;;;5.32;100.00;102490.91;10411650;28;20110;-63
2022/12/01 10:19:37;;;;;;;39.30;17.25;;;;;;;5.24;100.00;102488.25;10411841;28;20121;-62
2022/12/01 10:24:54;;;;;;;;;;;;;;;5.39;100.00;102484.91;10409426;28;20046;-64
2022/12/01 10:30:05;;;;;;;44.45;18.73;;;;;;;5.34;100.00;102486.59;10411853;28;19993;-64
2022/12/01 10:35:12;;;;;;;40.23;16.90;;;;;;;5.34;100.00;102472.78;10409465;28;20460;-63
2022/12/01 10:40:17;;;;;;;44.33;20.90;;;;;;;5.28;100.00;102471.03;10411455;28;20358;-64
2022/12/01 10:45:24;;;;;;;43.85;19.20;;;;;;;5.67;100.00;102466.91;10417431;28;20103;-63
2022/12/01 10:50:27;;;;;;;38.47;18.45;;;;;;;5.46;100.00;102464.22;10418134;28;20049;-63
2022/12/01 10:55:34;;;;;;;39.60;18.17;;;;;;;5.71;100.00;102459.16;10416031;28;20504;-63
2022/12/01 11:00:41;;;;;;;42.47;19.13;;;;;;;5.98;100.00;102458.38;10418597;28;20104;-63
2022/12/01 11:05:42;;;;;;;41.33;19.60;;;;;;;5.97;100.00;102455.78;10418257;28;20129;-63
2022/12/01 11:10:50;;;;;;;32.83;17.40;;;;;;;5.92;100.00;102454.03;10417467;28;20053;-63
2022/12/01 11:15:55;;;;;;;34.15;18.85;;;;;;;6.02;100.00;102451.50;10417894;28;20415;-79
2022/12/01 11:21:11;;;;;;;40.00;19.40;;;;;;;5.75;100.00;102450.53;10418766;28;20111;-80
2022/12/01 11:26:21;;;;;;;39.47;19.92;;;;;;;5.63;100.00;102451.34;10415940;28;20115;-79
2022/12/01 11:31:37;;;;;;;42.25;20.73;;;;;;;5.46;100.00;102446.09;10417435;28;20053;-82
2022/12/01 11:36:46;;;;;;;39.00;17.95;;;;;;;5.72;100.00;102437.56;10417805;28;20470;-81
2022/12/01 11:41:57;;;;;;;38.28;19.10;;;;;;;5.63;100.00;102436.69;10417721;28;20049;-81
2022/12/01 11:47:14;;;;;;;35.63;17.08;;;;;;;5.73;100.00;102421.16;10417508;28;20107;-80
2022/12/01 11:52:27;;;;;;;39.78;18.60;;;;;;;5.62;100.00;102423.72;10416775;28;20049;-81
2022/12/01 11:57:31;;;;;;;35.92;17.80;;;;;;;5.97;100.00;102419.50;10415153;28;20080;-80
2022/12/01 12:02:47;;;;;;;32.13;16.33;;;;;;;5.93;100.00;102419.47;10416610;28;20053;-79
2022/12/01 12:08:04;;;;;;;39.97;17.25;;;;;;;6.03;100.00;102415.22;10417750;28;20063;-80
2022/12/01 12:13:35;;;;;;;34.78;16.38;;;;;;;6.11;100.00;102415.25;10416993;28;20095;-79
2022/12/01 12:19:02;;;;;;;34.80;16.80;;;;;;;6.01;100.00;102410.88;10415490;28;20478;-79
2022/12/01 12:24:42;;;;;;;32.53;15.00;;;;;;;5.98;100.00;102410.84;10413388;28;20056;-80
2022/12/01 12:30:03;;;;;;;22.35;12.75;;;;;;;5.89;100.00;102409.97;10416177;28;20076;-78
2022/12/01 12:35:29;;;;;;;33.20;15.05;;;;;;;5.96;100.00;102413.47;10416184;28;20350;-78
2022/12/01 12:40:44;;;;;;;35.38;15.52;;;;;;;6.10;100.00;102405.75;10417057;28;20049;-80
2022/12/01 12:46:01;;;;;;;26.95;14.13;;;;;;;5.93;100.00;102403.94;10415728;28;20042;-78
2022/12/01 12:51:15;;;;;;;24.60;13.13;;;;;;;5.95;100.00;102401.34;10416269;28;20111;-79
2022/12/01 12:56:24;;;;;;;28.25;14.27;;;;;;;6.11;100.00;102381.53;10413485;28;20057;-78
2022/12/01 13:01:35;;;;;;;35.00;16.20;;;;;;;6.46;100.00;102381.56;10414810;28;20057;-78
2022/12/01 13:06:43;;;;;;;31.30;15.00;;;;;;;6.52;100.00;102382.44;10413903;28;20056;-79
2022/12/01 13:11:53;;;;;;;36.78;18.85;;;;;;;6.46;100.00;102381.56;10413708;28;20077;-77
2022/12/01 13:17:07;;;;;;;39.60;17.60;;;;;;;6.60;100.00;102379.81;10413651;28;20464;-77
2022/12/01 13:22:13;;;;;;;40.83;19.77;;;;;;;6.09;100.00;102377.22;10413873;28;20076;-81
2022/12/01 13:27:19;;;;;;;31.52;15.82;;;;;;;6.18;100.00;102370.31;10409554;28;20053;-76
2022/12/01 13:32:34;;;;;;;38.10;16.75;;;;;;;6.04;100.00;102364.25;10412562;28;20076;-78
2022/12/01 13:37:38;;;;;;;34.72;14.95;;;;;;;5.96;100.00;102358.16;10415816;28;20076;-78
2022/12/01 13:42:40;;;;;;;28.88;15.90;;;;;;;6.03;100.00;102355.59;10415971;28;20103;-77
2022/12/01 13:47:54;;;;;;;35.03;17.98;;;;;;;5.81;100.00;102352.09;10415205;28;20164;-79
2022/12/01 13:53:11;;;;;;;32.78;15.95;;;;;;;5.76;100.00;102353.81;10415108;28;20137;-79
2022/12/01 13:58:44;;;;;;;33.03;15.68;;;;;;;5.87;100.00;102348.66;10414394;28;20071;-77
2022/12/01 14:03:54;;;;;;;30.63;13.88;;;;;;;5.86;100.00;102349.53;10414587;28;20113;-77
2022/12/01 14:09:01;;;;;;;28.75;15.65;;;;;;;5.66;100.00;102342.56;10413686;28;20515;-77
2022/12/01 14:14:17;;;;;;;30.05;15.25;;;;;;;5.71;100.00;102352.94;10411837;28;20178;-77
2022/12/01 14:19:35;;;;;;;34.20;15.27;;;;;;;5.61;100.00;102355.50;10418755;28;20402;-78
2022/12/01 14:24:41;;;;;;;32.15;16.10;;;;;;;5.54;100.00;102353.75;10418579;28;20060;-77
2022/12/01 14:29:43;;;;;;;29.58;14.95;;;;;;;5.43;100.00;102350.28;10420153;28;20076;-80
2022/12/01 14:34:53;;;;;;;34.97;15.18;;;;;;;5.40;100.00;102361.47;10419918;28;20063;-76
2022/12/01 14:40:03;;;;;;;33.22;16.75;;;;;;;5.37;100.00;102362.34;10420289;28;20053;-76
2022/12/01 14:45:13;;;;;;;37.65;16.90;;;;;;;5.41;100.00;102364.06;10419818;28;20571;-76
2022/12/01 14:50:23;;;;;;;33.42;15.80;;;;;;;5.23;100.00;102359.69;10419114;28;20076;-77
2022/12/01 14:55:39;;;;;;;26.30;13.82;;;;;;;5.29;100.00;102356.25;10417423;28;20105;-77
2022/12/01 15:00:59;;;;;;;40.33;17.40;;;;;;;5.26;100.00;102348.47;10418636;28;20087;-77
2022/12/01 15:06:02;;;;;;;29.50;15.18;;;;;;;5.21;100.00;102345.88;10418936;28;20088;-77
2022/12/01 15:11:07;;;;;;;30.92;16.13;;;;;;;5.14;100.00;102349.31;10418457;28;20501;-75
2022/12/01 15:16:16;;;;;;;36.05;16.48;;;;;;;5.16;100.00;102344.97;10418124;28;20055;-75
2022/12/01 15:21:25;;;;;;;36.75;17.80;;;;;;;5.06;100.00;102346.66;10418171;28;20060;-74
2022/12/01 15:26:30;;;;;;;41.75;18.40;;;;;;;5.02;100.00;102356.13;10419931;28;20057;-74
2022/12/01 15:31:34;;;;;;;34.25;17.13;;;;;;;5.00;100.00;102373.38;10443173;28;20053;-75
2022/12/01 15:36:38;;;;;;;38.35;17.83;;;;;;;4.99;100.00;102373.34;10429761;28;20049;-73
2022/12/01 15:41:42;;;;;;;40.75;19.38;;;;;;;4.95;100.00;102375.06;10417530;28;20060;-73
2022/12/01 15:46:44;;;;;;;38.42;18.42;;;;;;;4.88;100.00;102374.19;10417177;28;20111;-73
2022/12/01 15:51:49;;;;;;;46.47;22.40;;;;;;;4.83;100.00;102380.19;10416909;28;20049;-75
2022/12/01 15:56:54;;;;;;;43.33;19.17;;;;;;;4.83;100.00;102370.69;10413819;28;20387;-73
2022/12/01 16:01:57;;;;;;;37.78;19.17;;;;;;;4.78;100.00;102369.78;10416118;28;20107;-73
2022/12/01 16:07:06;;;;;;;44.78;21.05;;;;;;;4.75;100.00;102372.34;10416519;28;20111;-63
2022/12/01 16:12:26;;;;;;;41.13;19.25;;;;;;;4.76;100.00;102374.09;10416213;28;20053;-73
2022/12/01 16:17:41;;;;;;;39.13;18.40;;;;;;;4.73;100.00;102374.06;10415295;28;20088;-73
2022/12/01 16:22:46;;;;;;;40.03;18.05;;;;;;;4.70;100.00;102372.34;10415575;28;20057;-73
2022/12/01 16:27:54;;;;;;;38.30;19.08;;;;;;;4.68;100.00;102375.78;10412592;28;20582;-74
2022/12/01 16:33:02;;;;;;;38.25;19.23;;;;;;;4.68;100.00;102381.78;10417022;28;20464;-64
2022/12/01 16:38:14;;;;;;;40.10;18.70;;;;;;;4.69;100.00;102382.66;10414516;28;20060;-64
2022/12/01 16:43:19;;;;;;;36.23;17.13;;;;;;;4.69;100.00;102383.53;10412950;28;20054;-69
2022/12/01 16:48:22;;;;;;;39.13;18.70;;;;;;;4.70;100.00;102384.41;10413139;28;20308;-65
2022/12/01 16:53:25;;;;;;;42.00;20.17;;;;;;;4.70;100.00;102389.56;10411249;28;20053;-75
2022/12/01 16:58:27;;;;;;;39.00;19.58;;;;;;;4.69;100.00;102387.84;10412480;28;20090;-73
2022/12/01 17:03:29;;;;;;;47.33;22.00;;;;;;;4.64;100.00;102375.75;10412537;28;20060;-75
2022/12/01 17:08:32;;;;;;;42.42;19.40;;;;;;;4.67;100.00;102381.78;10413103;28;20069;-74
2022/12/01 17:13:35;;;;;;;43.60;20.13;;;;;;;4.62;100.00;102382.63;10413557;28;20080;-74
2022/12/01 17:18:38;;;;;;;41.72;19.17;;;;;;;4.60;100.00;102379.16;10412490;28;20064;-74
2022/12/01 17:23:41;;;;;;;42.58;20.27;;;;;;;4.55;100.00;102375.66;10410483;28;20099;-74
2022/12/01 17:28:43;;;;;;;39.72;18.38;;;;;;;4.52;100.00;102391.19;10411351;28;20105;-65
2022/12/01 17:33:45;;;;;;;37.42;18.80;;;;;;;4.51;100.00;102384.25;10410828;28;20149;-64
2022/12/01 17:38:49;;;;;;;43.67;18.92;;;;;;;4.50;100.00;102377.34;10411056;28;20105;-65
2022/12/01 17:43:51;;;;;;;45.50;20.13;;;;;;;4.46;100.00;102378.19;10410933;28;20045;-65
2022/12/01 17:48:54;;;;;;;38.67;18.52;;;;;;;4.42;100.00;102390.22;10410659;28;20135;-64
2022/12/01 17:53:57;;;;;;;39.75;19.38;;;;;;;4.42;100.00;102382.47;10407663;28;20104;-65
2022/12/01 17:58:59;;;;;;;49.35;20.25;;;;;;;4.36;100.00;102387.59;10410432;28;20095;-73
2022/12/01 18:04:01;;;;;;;42.72;20.67;;;;;;;4.35;100.00;102388.44;10410992;28;20063;-73
2022/12/01 18:09:04;;;;;;;43.42;20.08;;;;;;;4.31;100.00;102395.28;10410662;28;20546;-72
2022/12/01 18:14:06;;;;;;;40.42;18.08;;;;;;;4.31;100.00;102392.72;10409993;28;20075;-73
2022/12/01 18:19:09;;;;;;;39.78;19.02;;;;;;;4.32;100.00;102384.13;10410427;28;20045;-73
2022/12/01 18:24:12;;;;;;;44.28;19.13;;;;;;;4.32;100.00;102381.53;10402868;28;20582;-73
2022/12/01 18:29:17;;;;;;;45.22;20.25;;;;;;;4.30;100.00;102378.06;10410209;28;20114;-73
2022/12/01 18:34:19;;;;;;;41.42;20.10;;;;;;;4.25;100.00;102379.75;10410052;28;20076;-73
2022/12/01 18:39:23;;;;;;;44.45;19.55;;;;;;;4.21;100.00;102370.22;10409954;28;20132;-73
2022/12/01 18:44:25;;;;;;;40.33;19.00;;;;;;;4.19;100.00;102371.94;10410369;28;20063;-73
2022/12/01 18:49:27;;;;;;;38.15;19.48;;;;;;;4.18;100.00;102372.78;10410143;28;20111;-72
2022/12/01 18:54:30;;;;;;;38.58;18.83;;;;;;;4.15;100.00;102365.00;10407283;28;20107;-73
2022/12/01 18:59:32;;;;;;;38.53;18.83;;;;;;;4.12;100.00;102377.06;10410056;28;20145;-73
2022/12/01 19:04:33;;;;;;;42.63;19.05;;;;;;;4.09;100.00;102374.44;10413839;28;20402;-73
2022/12/01 19:09:38;;;;;;;41.80;18.15;;;;;;;4.06;100.00;102366.66;10417408;28;20057;-73
2022/12/01 19:14:40;;;;;;;38.13;20.67;;;;;;;4.08;100.00;102369.25;10416747;28;20342;-65
2022/12/01 19:19:41;;;;;;;36.03;18.02;;;;;;;4.06;100.00;102374.41;10416938;28;20103;-73
2022/12/01 19:24:44;;;;;;;36.05;17.83;;;;;;;4.10;100.00;102377.88;10412783;28;20074;-73
2022/12/01 19:29:46;;;;;;;40.28;18.10;;;;;;;4.12;100.00;102371.00;10416327;28;20459;-73
2022/12/01 19:34:48;;;;;;;41.47;19.30;;;;;;;4.10;100.00;102371.00;10416182;28;20412;-72
2022/12/01 19:39:51;;;;;;;37.92;18.60;;;;;;;4.16;100.00;102382.22;10416710;28;20110;-72
2022/12/01 19:44:53;;;;;;;36.13;17.42;;;;;;;4.16;100.00;102370.19;10415774;28;20096;-72
2022/12/01 19:49:54;;;;;;;29.67;16.93;;;;;;;4.18;100.00;102370.19;10415122;28;20436;-72
2022/12/01 19:54:58;;;;;;;37.00;18.07;;;;;;;4.15;100.00;102370.16;10412807;28;20300;-72
2022/12/01 20:00:00;;;;;;;50.30;20.45;;;;;;;4.19;100.00;102382.25;10414525;28;20304;-72
2022/12/01 20:05:02;;;;;;;39.00;19.00;;;;;;;4.17;100.00;102373.66;10416409;28;20131;-71
2022/12/01 20:10:06;;;;;;;41.83;18.58;;;;;;;4.14;100.00;102371.88;10415728;28;20498;-73
2022/12/01 20:15:10;;;;;;;33.92;17.20;;;;;;;4.16;100.00;102372.78;10414483;28;20112;-72
2022/12/01 20:20:14;;;;;;;41.22;19.27;;;;;;;4.14;100.00;102369.28;10415065;28;20096;-72
2022/12/01 20:25:17;;;;;;;34.80;17.98;;;;;;;4.12;100.00;102371.00;10411678;28;20122;-72
2022/12/01 20:30:19;;;;;;;42.20;19.80;;;;;;;4.13;100.00;102375.31;10413253;28;20045;-73
2022/12/01 20:35:21;;;;;;;37.58;18.45;;;;;;;4.12;100.00;102384.81;10414267;28;20509;-73
2022/12/01 20:40:25;;;;;;;41.35;17.80;;;;;;;4.10;100.00;102376.16;10413407;28;20095;-72
2022/12/01 20:45:27;;;;;;;33.38;15.85;;;;;;;4.10;100.00;102378.75;10413720;28;20097;-73
2022/12/01 20:50:29;;;;;;;36.50;17.70;;;;;;;4.08;100.00;102366.66;10412833;28;20515;-64
2022/12/01 20:55:32;;;;;;;37.83;18.15;;;;;;;4.10;100.00;102368.41;10410418;28;20114;-65
2022/12/01 21:00:34;;;;;;;39.10;17.70;;;;;;;4.07;100.00;102355.47;10412690;28;20054;-65
2022/12/01 21:05:39;;;;;;;35.72;18.15;;;;;;;4.09;100.00;102355.47;10412134;28;20107;-65
2022/12/01 21:10:46;;;;;;;38.58;17.90;;;;;;;4.09;100.00;102350.31;10411864;28;20551;-66
2022/12/01 21:15:54;;;;;;;36.58;18.08;;;;;;;4.07;100.00;102347.69;10413273;28;20053;-73
2022/12/01 21:21:06;;;;;;;36.90;17.50;;;;;;;4.06;100.00;102347.69;10413247;28;20589;-72
2022/12/01 21:26:15;;;;;;;47.47;19.45;;;;;;;4.01;100.00;102336.47;10410232;28;20073;-73
2022/12/01 21:31:17;;;;;;;37.00;18.77;;;;;;;3.95;100.00;102335.56;10413373;28;20069;-74
2022/12/01 21:36:21;;;;;;;44.65;17.80;;;;;;;3.95;100.00;102332.09;10413719;28;20068;-65
2022/12/01 21:41:28;;;;;;;42.17;19.85;;;;;;;3.93;100.00;102339.81;10412295;28;20056;-65
2022/12/01 21:46:30;;;;;;;42.40;19.17;;;;;;;3.91;100.00;102336.38;10412985;28;20063;-65
2022/12/01 21:51:32;;;;;;;45.22;19.63;;;;;;;3.92;100.00;102332.06;10411766;28;20049;-73
2022/12/01 21:56:35;;;;;;;41.60;19.45;;;;;;;3.95;100.00;102317.47;10409757;28;20046;-73
2022/12/01 22:01:37;;;;;;;43.10;19.98;;;;;;;3.94;100.00;102314.88;10411966;28;20195;-71
2022/12/01 22:06:43;;;;;;;47.55;20.95;;;;;;;3.91;100.00;102302.81;10412556;28;20063;-72
2022/12/01 22:11:52;;;;;;;50.10;21.50;;;;;;;3.91;100.00;102299.34;10411790;28;20449;-73
2022/12/01 22:16:57;;;;;;;49.95;21.40;;;;;;;3.90;100.00;102289.88;10412089;28;20573;-73
2022/12/01 22:22:22;;;;;;;55.90;23.55;;;;;;;3.88;100.00;102294.13;10411432;28;20046;-73
2022/12/01 22:27:38;;;;;;;55.17;22.67;;;;;;;3.88;100.00;102294.13;10409348;28;20100;-72
2022/12/01 22:32:54;;;;;;;48.92;23.00;;;;;;;3.86;100.00;102307.03;10412135;28;20107;-72
2022/12/01 22:38:13;;;;;;;57.50;23.33;;;;;;;3.85;100.00;102300.16;10414106;28;20091;-72
2022/12/01 22:43:47;;;;;;;64.13;22.30;;;;;;;3.85;100.00;102297.56;10419024;28;20053;-73
2022/12/01 22:48:52;;;;;;;60.00;24.48;;;;;;;3.84;100.00;102294.09;10419713;28;20516;-73
2022/12/01 22:54:01;;;;;;;59.42;23.58;;;;;;;3.85;100.00;102305.31;10416346;28;20092;-72
2022/12/01 22:59:14;;;;;;;60.15;24.98;;;;;;;3.85;100.00;102301.03;10419048;28;20045;-72
2022/12/01 23:04:25;;;;;;;55.17;22.35;;;;;;;3.84;100.00;102296.69;10418459;28;20534;-72